createdAt,value
2023-02-01T00:03:44.748Z,86.46
2023-02-01T00:07:56.318Z,85.59
2023-02-01T00:12:07.888Z,85.21
2023-02-01T00:16:24.948Z,85.79
2023-02-01T00:20:36.473Z,85.10
2023-02-01T00:24:47.965Z,84.85
2023-02-01T00:29:00.207Z,84.78
2023-02-01T00:33:12.092Z,84.83
2023-02-01T00:37:24.194Z,84.34
2023-02-01T00:41:36.048Z,84.33
2023-02-01T00:45:48.006Z,84.21
2023-02-01T00:49:59.500Z,84.45
2023-02-01T00:54:12.573Z,83.83
2023-02-01T00:58:27.543Z,83.98
2023-02-01T01:02:39.161Z,83.58
2023-02-01T01:06:50.705Z,83.63
2023-02-01T01:11:11.777Z,83.23
2023-02-01T01:15:23.290Z,83.27
2023-02-01T01:19:34.784Z,83.32
2023-02-01T01:23:47.710Z,83.38
2023-02-01T01:27:59.321Z,83.27
2023-02-01T01:32:10.774Z,83.62
2023-02-01T01:36:23.431Z,83.81
2023-02-01T01:40:34.925Z,83.85
2023-02-01T01:45:06.308Z,84.10
2023-02-01T01:49:22.765Z,84.58
2023-02-01T01:53:48.886Z,84.54
2023-02-01T01:58:07.148Z,85.02
2023-02-01T02:02:18.952Z,85.25
2023-02-01T02:06:42.739Z,85.29
2023-02-01T02:11:00.684Z,85.47
2023-02-01T02:15:14.971Z,85.47
2023-02-01T02:19:51.301Z,85.17
2023-02-01T02:24:10.409Z,85.49
2023-02-01T02:28:48.308Z,85.67
2023-02-01T02:33:35.802Z,85.45
2023-02-01T02:38:15.423Z,85.47
2023-02-01T02:42:53.218Z,85.08
2023-02-01T02:47:26.159Z,85.32
2023-02-01T02:52:21.881Z,85.13
2023-02-01T02:56:53.233Z,85.06
2023-02-01T03:01:24.344Z,85.17
2023-02-01T03:05:37.994Z,85.22
2023-02-01T03:09:50.707Z,85.22
2023-02-01T03:14:07.473Z,85.74
2023-02-01T03:18:36.690Z,85.84
2023-02-01T03:22:50.977Z,85.27
2023-02-01T03:27:10.046Z,85.71
2023-02-01T03:31:22.689Z,86.03
2023-02-01T03:35:43.410Z,85.82
2023-02-01T03:40:02.041Z,86.08
2023-02-01T03:44:27.822Z,86.00
2023-02-01T03:48:41.188Z,86.62
2023-02-01T03:53:22.559Z,85.80
2023-02-01T03:57:38.953Z,85.96
2023-02-01T04:01:51.332Z,85.79
2023-02-01T04:06:03.048Z,85.52
2023-02-01T04:10:17.434Z,85.28
2023-02-01T04:14:30.266Z,85.71
2023-02-01T04:18:41.825Z,85.61
2023-02-01T04:22:53.419Z,86.06
2023-02-01T04:27:05.286Z,86.18
2023-02-01T04:31:44.109Z,86.20
2023-02-01T04:35:55.613Z,85.58
2023-02-01T04:40:07.821Z,86.03
2023-02-01T04:44:19.741Z,85.86
2023-02-01T04:48:31.295Z,85.78
2023-02-01T04:52:42.838Z,85.01
2023-02-01T04:56:54.458Z,84.45
2023-02-01T05:01:07.584Z,84.34
2023-02-01T05:05:19.037Z,83.85
2023-02-01T05:09:30.587Z,83.08
2023-02-01T05:13:51.065Z,83.06
2023-02-01T05:18:02.535Z,82.37
2023-02-01T05:22:14.016Z,81.65
2023-02-01T05:26:25.956Z,81.73
2023-02-01T05:30:38.867Z,81.46
2023-02-01T05:34:51.483Z,81.37
2023-02-01T05:39:03.239Z,81.61
2023-02-01T05:43:14.758Z,81.26
2023-02-01T05:47:26.250Z,81.46
2023-02-01T05:51:37.773Z,81.10
2023-02-01T05:55:49.294Z,80.76
2023-02-01T06:00:01.038Z,80.68
2023-02-01T06:04:12.619Z,80.83
2023-02-01T06:08:26.543Z,80.30
2023-02-01T06:12:38.280Z,80.37
2023-02-01T06:16:49.795Z,80.21
2023-02-01T06:21:01.766Z,80.19
2023-02-01T06:25:13.369Z,79.98
2023-02-01T06:29:24.922Z,79.63
2023-02-01T06:33:37.395Z,79.85
2023-02-01T06:37:48.933Z,79.98
2023-02-01T06:42:00.460Z,79.70
2023-02-01T06:46:15.799Z,79.69
2023-02-01T06:50:28.157Z,79.55
2023-02-01T06:54:39.739Z,79.45
2023-02-01T06:58:51.268Z,79.50
2023-02-01T07:03:03.160Z,79.71
2023-02-01T07:07:15.478Z,79.41
2023-02-01T07:11:28.939Z,79.20
2023-02-01T07:15:40.957Z,79.48
2023-02-01T07:19:52.489Z,79.41
2023-02-01T07:24:04.295Z,79.55
2023-02-01T07:28:16.069Z,79.44
2023-02-01T07:32:27.582Z,79.87
2023-02-01T07:36:39.465Z,80.12
2023-02-01T07:40:51.061Z,80.39
2023-02-01T07:45:19.997Z,80.12
2023-02-01T07:49:32.271Z,80.59
2023-02-01T07:53:46.167Z,80.45
2023-02-01T07:57:59.005Z,80.64
2023-02-01T08:02:10.480Z,80.99
2023-02-01T08:06:23.558Z,80.92
2023-02-01T08:10:36.098Z,81.04
2023-02-01T08:14:47.628Z,80.78
2023-02-01T08:18:59.224Z,80.66
2023-02-01T08:23:10.768Z,80.73
2023-02-01T08:27:22.258Z,80.27
2023-02-01T08:31:34.391Z,80.54
2023-02-01T08:35:45.958Z,80.40
2023-02-01T08:39:57.537Z,80.27
2023-02-01T08:44:09.055Z,79.76
2023-02-01T08:48:20.561Z,79.42
2023-02-01T08:52:32.074Z,79.49
2023-02-01T08:56:43.622Z,76.91
2023-02-01T09:00:55.176Z,73.92
2023-02-01T09:05:07.245Z,70.06
2023-02-01T09:09:18.794Z,68.33
2023-02-01T09:13:31.051Z,66.49
2023-02-01T09:17:44.475Z,65.89
2023-02-01T09:21:56.507Z,67.00
2023-02-01T09:26:08.290Z,67.52
2023-02-01T09:30:20.211Z,68.14
2023-02-01T09:34:32.290Z,68.88
2023-02-01T09:38:52.426Z,69.04
2023-02-01T09:43:26.500Z,69.20
2023-02-01T09:47:47.546Z,68.81
2023-02-01T09:52:01.487Z,69.13
2023-02-01T09:56:18.658Z,69.25
2023-02-01T10:00:36.131Z,69.79
2023-02-01T10:04:48.960Z,70.22
2023-02-01T10:09:06.677Z,70.52
2023-02-01T10:13:55.530Z,71.09
2023-02-01T10:18:30.233Z,71.44
2023-02-01T10:23:13.749Z,71.85
2023-02-01T10:27:24.245Z,72.08
2023-02-01T10:31:38.898Z,73.00
2023-02-01T10:36:13.083Z,74.42
2023-02-01T10:40:27.000Z,75.71
2023-02-01T10:44:46.484Z,76.64
2023-02-01T10:49:01.777Z,77.11
2023-02-01T10:53:19.658Z,78.18
2023-02-01T10:57:32.837Z,79.32
2023-02-01T11:01:47.574Z,80.08
2023-02-01T11:05:59.653Z,80.62
2023-02-01T11:10:39.358Z,81.17
2023-02-01T11:14:51.507Z,81.11
2023-02-01T11:19:03.927Z,80.88
2023-02-01T11:23:27.803Z,80.40
2023-02-01T11:27:49.493Z,79.91
2023-02-01T11:32:05.754Z,79.33
2023-02-01T11:36:21.693Z,79.15
2023-02-01T11:40:40.287Z,79.40
2023-02-01T11:44:52.285Z,79.61
2023-02-01T11:49:26.228Z,79.75
2023-02-01T11:54:11.856Z,79.60
2023-02-01T11:58:37.827Z,79.58
2023-02-01T12:03:01.636Z,79.58
2023-02-01T12:07:45.821Z,79.27
2023-02-01T12:12:26.049Z,78.86
2023-02-01T12:17:22.183Z,78.94
2023-02-01T12:21:53.925Z,78.57
2023-02-01T12:26:30.466Z,78.41
2023-02-01T12:31:14.249Z,77.97
2023-02-01T12:35:49.296Z,77.59
2023-02-01T12:40:19.603Z,76.30
2023-02-01T12:44:37.345Z,76.31
2023-02-01T12:49:20.168Z,75.70
2023-02-01T12:53:47.839Z,75.35
2023-02-01T12:58:13.969Z,75.21
2023-02-01T13:02:38.828Z,75.18
2023-02-01T13:07:18.056Z,75.06
2023-02-01T13:11:34.972Z,74.80
2023-02-01T13:15:55.155Z,74.93
2023-02-01T13:20:31.415Z,74.84
2023-02-01T13:24:48.540Z,75.04
2023-02-01T13:29:07.514Z,74.64
2023-02-01T13:33:54.405Z,74.40
2023-02-01T13:38:43.626Z,74.24
2023-02-01T13:42:59.430Z,74.13
2023-02-01T13:47:24.993Z,74.29
2023-02-01T13:51:41.933Z,74.49
2023-02-01T13:56:08.455Z,74.42
2023-02-01T14:00:39.404Z,74.73
2023-02-01T14:04:51.745Z,74.71
2023-02-01T14:09:09.461Z,74.94
2023-02-01T14:13:39.028Z,74.93
2023-02-01T14:17:51.163Z,74.63
2023-02-01T14:22:21.222Z,74.61
2023-02-01T14:26:36.095Z,74.43
2023-02-01T14:30:49.407Z,74.04
2023-02-01T14:35:03.624Z,73.76
2023-02-01T14:39:38.796Z,73.62
2023-02-01T14:43:52.275Z,73.82
2023-02-01T14:48:07.068Z,73.67
2023-02-01T14:52:22.629Z,73.74
2023-02-01T14:56:35.574Z,74.03
2023-02-01T15:00:57.256Z,74.00
2023-02-01T15:05:33.903Z,74.16
2023-02-01T15:09:48.806Z,74.22
2023-02-01T15:14:01.662Z,74.36
2023-02-01T15:18:19.607Z,74.84
2023-02-01T15:22:32.076Z,75.17
2023-02-01T15:26:43.888Z,76.74
2023-02-01T15:31:01.291Z,77.76
2023-02-01T15:35:56.114Z,78.40
2023-02-01T15:40:10.396Z,78.47
2023-02-01T15:44:44.142Z,78.56
2023-02-01T15:48:56.046Z,77.98
2023-02-01T15:53:19.054Z,78.14
2023-02-01T15:57:36.273Z,78.05
2023-02-01T16:01:48.927Z,77.38
2023-02-01T16:06:02.642Z,77.29
2023-02-01T16:10:28.418Z,77.34
2023-02-01T16:14:41.433Z,77.64
2023-02-01T16:18:53.371Z,77.25
2023-02-01T16:23:05.973Z,77.14
2023-02-01T16:27:17.659Z,77.39
2023-02-01T16:31:32.581Z,77.60
2023-02-01T16:35:44.198Z,77.39
2023-02-01T16:39:55.785Z,77.39
2023-02-01T16:44:07.947Z,77.49
2023-02-01T16:48:37.449Z,77.44
2023-02-01T16:52:49.032Z,77.19
2023-02-01T16:57:00.789Z,77.03
2023-02-01T17:01:17.147Z,77.04
2023-02-01T17:05:29.865Z,76.83
2023-02-01T17:09:41.595Z,77.10
2023-02-01T17:13:53.530Z,77.14
2023-02-01T17:18:06.523Z,77.11
2023-02-01T17:22:18.802Z,76.91
2023-02-01T17:26:30.772Z,76.56
2023-02-01T17:30:42.681Z,76.38
2023-02-01T17:34:54.272Z,76.47
2023-02-01T17:39:06.737Z,76.67
2023-02-01T17:43:25.086Z,76.80
2023-02-01T17:47:36.774Z,76.34
2023-02-01T17:51:50.496Z,76.67
2023-02-01T17:56:02.306Z,76.71
2023-02-01T18:00:15.060Z,77.02
2023-02-01T18:04:26.944Z,76.70
2023-02-01T18:08:40.046Z,76.42
2023-02-01T18:12:51.615Z,76.15
2023-02-01T18:17:03.300Z,76.12
2023-02-01T18:21:17.531Z,76.97
2023-02-01T18:25:34.116Z,78.19
2023-02-01T18:29:45.763Z,78.67
2023-02-01T18:33:59.107Z,79.41
2023-02-01T18:38:13.543Z,80.63
2023-02-01T18:42:25.265Z,81.39
2023-02-01T18:46:37.099Z,83.32
2023-02-01T18:50:57.683Z,84.43
2023-02-01T18:55:10.908Z,86.11
2023-02-01T18:59:22.660Z,86.95
2023-02-01T19:03:41.735Z,88.14
2023-02-01T19:07:56.981Z,88.43
2023-02-01T19:12:08.688Z,88.86
2023-02-01T19:16:20.374Z,89.73
2023-02-01T19:20:32.489Z,90.10
2023-02-01T19:24:44.297Z,90.49
2023-02-01T19:29:00.177Z,90.45
2023-02-01T19:33:14.079Z,90.25
2023-02-01T19:37:27.791Z,89.50
2023-02-01T19:41:51.782Z,89.69
2023-02-01T19:46:11.708Z,89.21
2023-02-01T19:50:23.391Z,89.54
2023-02-01T19:54:35.291Z,89.30
2023-02-01T19:58:52.624Z,89.38
2023-02-01T20:03:13.260Z,89.83
2023-02-01T20:07:25.507Z,89.79
2023-02-01T20:11:41.222Z,90.17
2023-02-01T20:15:57.791Z,90.13
2023-02-01T20:20:10.070Z,90.81
2023-02-01T20:24:21.728Z,91.04
2023-02-01T20:28:35.026Z,90.92
2023-02-01T20:32:49.550Z,91.05
2023-02-01T20:37:01.172Z,91.08
2023-02-01T20:41:12.863Z,90.66
2023-02-01T20:45:25.830Z,90.45
2023-02-01T20:49:40.354Z,90.45
2023-02-01T20:53:53.710Z,90.15
2023-02-01T20:58:05.750Z,89.84
2023-02-01T21:02:17.317Z,89.79
2023-02-01T21:06:28.888Z,89.72
2023-02-01T21:10:40.555Z,89.13
2023-02-01T21:14:52.041Z,88.83
2023-02-01T21:19:03.952Z,88.85
2023-02-01T21:23:16.750Z,88.50
2023-02-01T21:27:29.346Z,88.65
2023-02-01T21:31:43.536Z,89.09
2023-02-01T21:35:55.534Z,89.77
2023-02-01T21:40:07.547Z,89.81
2023-02-01T21:44:19.708Z,90.23
2023-02-01T21:48:31.428Z,90.45
2023-02-01T21:53:03.211Z,91.02
2023-02-01T21:57:14.980Z,90.73
2023-02-01T22:01:26.679Z,91.07
2023-02-01T22:05:38.560Z,90.68
2023-02-01T22:09:50.208Z,90.81
2023-02-01T22:14:01.848Z,90.79
2023-02-01T22:18:13.482Z,90.45
2023-02-01T22:22:25.082Z,90.29
2023-02-01T22:26:36.846Z,90.27
2023-02-01T22:30:48.660Z,90.11
2023-02-01T22:35:01.677Z,90.14
2023-02-01T22:39:13.355Z,89.97
2023-02-01T22:43:25.921Z,89.81
2023-02-01T22:47:37.532Z,89.41
2023-02-01T22:51:50.889Z,89.23
2023-02-01T22:56:04.622Z,89.10
2023-02-01T23:00:16.353Z,89.52
2023-02-01T23:04:27.904Z,89.23
2023-02-01T23:08:40.476Z,89.83
2023-02-01T23:12:52.027Z,89.85
2023-02-01T23:17:03.575Z,90.13
2023-02-01T23:21:20.433Z,90.42
2023-02-01T23:25:32.076Z,90.50
2023-02-01T23:29:43.689Z,90.59
2023-02-01T23:33:56.557Z,90.95
2023-02-01T23:38:08.162Z,91.39
2023-02-01T23:42:20.657Z,92.14
2023-02-01T23:46:35.063Z,92.32
2023-02-01T23:50:46.737Z,92.55
2023-02-01T23:54:58.699Z,93.04
2023-02-01T23:59:14.259Z,93.42
